Language: 


Des rapports , des résumés tant et plus, au choix de chacun....


Données statistiques de la station
Quotidien Rapport Mars 14, 2017 Unités:  Anglais    Métrique   les deux
« Précédent Jour
Suivant Jour »
Quotidien Hebdomadaire Mensuel Annuel Actuel
  Haut: Bas: Moyen:
Température: 56.3 °F 32 °F 46.8 °F
Pt de rosée: 52.5 °F 35.2 °F 45.1 °F
Humidité: 98 % 0 % 94 %
Vitesse du vent: 17 mph 0 mph 6.5 mph
Rafales: 17 mph - -
Vent:- - WSW
Pression: 30.5 in 0 in -
Précipitation: 0 in    
Historical Graphs
 
 
Données statistiques pour Mars 14, 2017
Heure Température Point de rosée Pression Vent Vitesse du vent Refales Humidité Pluie (taux horaire)
00:02 37.6 °F 36.3 °F 30.4 in Calm     95 % 0 in
00:07 37.6 °F 36.7 °F 30.4 in Calm     96 % 0 in
00:12 37.6 °F 36.3 °F 30.4 in Calm     96 % 0 in
00:17 37.6 °F 36.3 °F 30.4 in Calm     96 % 0 in
00:22 37.6 °F 36.3 °F 30.4 in Calm     96 % 0 in
00:27 37.2 °F 36.3 °F 30.4 in Calm     96 % 0 in
00:32 37.6 °F 36.3 °F 30.4 in Calm     96 % 0 in
00:37 37.6 °F 36.3 °F 30.4 in Calm     96 % 0 in
00:42 37.2 °F 36.3 °F 30.4 in Calm     96 % 0 in
00:47 37 °F 36.3 °F 30.4 in West 2 mph 2.2 mph 97 % 0 in
00:52 36.9 °F 36.1 °F 30.4 in Calm   2.2 mph 97 % 0 in
00:57 36.9 °F 35.8 °F 30.4 in Calm   2.2 mph 96 % 0 in
01:02 36.7 °F 35.6 °F 30.4 in Calm     96 % 0 in
01:07 36.3 °F 35.4 °F 30.4 in Calm     96 % 0 in
01:12 36.1 °F 35.4 °F 30.4 in Calm     97 % 0 in
01:17 36.1 °F 35.4 °F 30.4 in West 1.6 mph 2 mph 97 % 0 in
01:22 36.1 °F 35.4 °F 30.4 in Calm   2 mph 97 % 0 in
01:27 36.1 °F 35.4 °F 30.4 in West 1.6 mph 2.9 mph 97 % 0 in
01:32 36.1 °F 35.4 °F 30.4 in West 2.5 mph 3.6 mph 97 % 0 in
01:37 36.1 °F 35.2 °F 30.4 in WSW 1.3 mph 3.6 mph 97 % 0 in
01:42 36.1 °F 35.2 °F 30.4 in West 2.5 mph 3.1 mph 97 % 0 in
01:47 36.3 °F 36 °F 30.4 in West 2.5 mph 3.1 mph 98 % 0 in
01:52 36.7 °F 36.1 °F 30.4 in West 1.3 mph 3.8 mph 98 % 0 in
01:57 36.9 °F 36.3 °F 30.4 in West 3.6 mph 3.8 mph 98 % 0 in
02:02 37 °F 36.7 °F 0 in West 3.6 mph 3.6 mph 98 % 0 in
02:07 37.6 °F 37 °F 30.4 in West 3.4 mph 4 mph 98 % 0 in
02:12 37.6 °F 37 °F 30.4 in West 2.9 mph 4 mph 98 % 0 in
02:17 37.8 °F 37.2 °F 30.4 in West 3.8 mph 4.3 mph 98 % 0 in
02:22 37.6 °F 37 °F 30.4 in West 2.5 mph 4.3 mph 98 % 0 in
02:27 37.8 °F 37.2 °F 30.4 in West 3.1 mph 4.3 mph 98 % 0 in
02:32 37.8 °F 37.2 °F 30.4 in West 2.5 mph 4.3 mph 98 % 0 in
02:38 37.9 °F 37.6 °F 30.4 in West 3.8 mph 4.3 mph 98 % 0 in
02:43 37.9 °F 37.6 °F 30.4 in West 3.4 mph 4.3 mph 98 % 0 in
02:48 37.9 °F 37.6 °F 30.4 in SW 3.1 mph 4.7 mph 98 % 0 in
02:53 37.8 °F 37.2 °F 30.4 in West 3.1 mph 4.7 mph 98 % 0 in
02:58 37.6 °F 36.7 °F 30.4 in West 3.8 mph 4 mph 97 % 0 in
03:03 37.6 °F 37 °F 30.4 in WSW 2.9 mph 4 mph 98 % 0 in
03:08 37.6 °F 37 °F 30.4 in West 3.8 mph 4 mph 98 % 0 in
03:13 37.6 °F 37 °F 30.5 in West 3.6 mph 4 mph 98 % 0 in
03:18 36.9 °F 36.3 °F 30.5 in West 2.5 mph 4 mph 98 % 0 in
03:23 37 °F 36.7 °F 30.5 in West 3.6 mph 4 mph 98 % 0 in
03:28 37.2 °F 36.9 °F 30.5 in WSW 3.4 mph 4.3 mph 98 % 0 in
03:33 37.2 °F 36.9 °F 30.5 in West 2.7 mph 4.3 mph 98 % 0 in
03:38 37.8 °F 37.2 °F 30.5 in WSW 3.1 mph 4 mph 98 % 0 in
03:43 37.9 °F 37.6 °F 30.4 in West 4.9 mph 4.9 mph 98 % 0 in
03:48 37.9 °F 37.6 °F 30.4 in WSW 4 mph 4.9 mph 98 % 0 in
03:53 37.6 °F 37 °F 30.4 in WSW 3.4 mph 4.9 mph 98 % 0 in
03:58 37.2 °F 36.9 °F 30.4 in SW 3.8 mph 4.9 mph 98 % 0 in
04:03 37.8 °F 37.2 °F 30.4 in WSW 5.4 mph 5.4 mph 98 % 0 in
04:08 38.5 °F 37.8 °F 30.4 in West 6.3 mph 6.3 mph 98 % 0 in
04:13 38.5 °F 37.9 °F 30.4 in West 3.8 mph 6.5 mph 98 % 0 in
04:18 38.7 °F 38.1 °F 30.4 in WSW 3.1 mph 6.5 mph 98 % 0 in
04:23 38.5 °F 37.9 °F 30.4 in WSW 3.6 mph 5.4 mph 98 % 0 in
04:28 37.8 °F 37.2 °F 30.4 in WSW 3.6 mph 5.4 mph 98 % 0 in
04:33 37.2 °F 36.9 °F 30.4 in WSW 4 mph 4.3 mph 98 % 0 in
04:38 37.2 °F 36.9 °F 30.4 in WSW 4.3 mph 4.5 mph 98 % 0 in
04:43 37.2 °F 36.9 °F 30.4 in WSW 6 mph 6 mph 98 % 0 in
04:48 37.8 °F 37.2 °F 30.4 in WSW 4 mph 6 mph 98 % 0 in
04:53 38.5 °F 37.8 °F 30.4 in WSW 4.7 mph 6.5 mph 98 % 0 in
04:58 38.7 °F 38.1 °F 30.4 in WSW 6.3 mph 6.5 mph 98 % 0 in
05:03 39 °F 38.5 °F 30.4 in West 7.8 mph 7.8 mph 98 % 0 in
05:08 39.4 °F 38.8 °F 30.4 in WSW 7.8 mph 8.7 mph 98 % 0 in
05:13 39.7 °F 39.2 °F 30.4 in WSW 6.3 mph 10.1 mph 98 % 0 in
05:18 40.1 °F 39.6 °F 30.4 in WSW 7.4 mph 10.3 mph 98 % 0 in
05:23 40.3 °F 39.7 °F 30.4 in WSW 10.5 mph 10.7 mph 98 % 0 in
05:28 40.5 °F 39.9 °F 30.4 in WSW 8.5 mph 11 mph 98 % 0 in
05:33 40.6 °F 40.1 °F 30.4 in WSW 6.5 mph 11 mph 98 % 0 in
05:38 40.8 °F 40.3 °F 30.4 in WSW 8.9 mph 12.1 mph 98 % 0 in
05:43 41 °F 40.5 °F 30.4 in WSW 5.4 mph 12.1 mph 98 % 0 in
05:48 41.2 °F 40.6 °F 30.4 in WSW 6.3 mph 8.5 mph 98 % 0 in
05:53 41.4 °F 40.8 °F 30.4 in WSW 7.8 mph 10.5 mph 98 % 0 in
05:58 41.5 °F 41 °F 30.4 in West 8.5 mph 10.5 mph 98 % 0 in
06:03 41.7 °F 41.2 °F 30.4 in WSW 10.1 mph 10.1 mph 98 % 0 in
06:08 41.9 °F 41.4 °F 30.4 in WSW 10.3 mph 10.5 mph 98 % 0 in
06:13 42.1 °F 41.5 °F 30.4 in WSW 6.5 mph 10.5 mph 98 % 0 in
06:14 42.1 °F 41.5 °F 30.4 in WSW 8.7 mph 10.3 mph 98 % 0 in
06:19 42.3 °F 41.7 °F 30.4 in West 8.1 mph 9.4 mph 98 % 0 in
06:24 42.4 °F 41.9 °F 30.4 in WSW 9.8 mph 10.5 mph 98 % 0 in
06:29 42.6 °F 42.1 °F 30.4 in WSW 6.3 mph 10.5 mph 98 % 0 in
06:34 42.8 °F 42.3 °F 30.4 in WSW 5.4 mph 11 mph 98 % 0 in
06:39 42.8 °F 42.3 °F 30.4 in West 6.5 mph 11 mph 98 % 0 in
06:44 42.8 °F 42.3 °F 30.4 in West 7.8 mph 10.7 mph 98 % 0 in
06:49 43.2 °F 42.6 °F 30.4 in WSW 5.4 mph 10.7 mph 98 % 0 in
06:54 43.2 °F 42.6 °F 30.4 in WSW 8.9 mph 11 mph 98 % 0 in
06:59 43.3 °F 42.8 °F 30.4 in WSW 8.7 mph 11 mph 98 % 0 in
07:04 43.5 °F 43 °F 30.4 in WSW 7.6 mph 11 mph 98 % 0 in
07:09 43.5 °F 43 °F 30.4 in WSW 8.5 mph 10.3 mph 98 % 0 in
07:14 43.5 °F 43.2 °F 30.4 in WSW 9.4 mph 10.3 mph 98 % 0 in
07:19 43.9 °F 43.3 °F 30.4 in WSW 8.7 mph 10.3 mph 98 % 0 in
07:24 43.9 °F 43.3 °F 30.4 in West 11 mph 12.1 mph 98 % 0 in
07:29 44.1 °F 43.5 °F 30.4 in WSW 10.7 mph 12.1 mph 98 % 0 in
07:34 44.2 °F 43.5 °F 30.4 in WSW 8.5 mph 12.1 mph 98 % 0 in
07:39 44.2 °F 43.5 °F 30.4 in WSW 6.3 mph 12.1 mph 98 % 0 in
07:44 44.2 °F 43.5 °F 30.4 in WSW 9.2 mph 10.3 mph 98 % 0 in
07:49 44.2 °F 43.9 °F 30.4 in WSW 8.5 mph 12.5 mph 98 % 0 in
07:54 44.2 °F 43.9 °F 30.4 in WSW 10.5 mph 12.5 mph 98 % 0 in
07:59 44.2 °F 43.9 °F 30.4 in WSW 10.5 mph 11.9 mph 98 % 0 in
08:04 44.2 °F 43.9 °F 30.4 in WSW 6.5 mph 12.8 mph 98 % 0 in
08:09 44.2 °F 43.9 °F 30.4 in WSW 7.6 mph 12.8 mph 98 % 0 in
08:14 44.4 °F 44.1 °F 30.4 in WSW 9.8 mph 10.7 mph 98 % 0 in
08:19 44.8 °F 44.2 °F 30.4 in WSW 7.8 mph 10.7 mph 98 % 0 in
08:24 45 °F 44.2 °F 30.4 in WSW 7.8 mph 9.8 mph 98 % 0 in
08:29 45.1 °F 44.4 °F 30.4 in WSW 6 mph 8.5 mph 98 % 0 in
08:34 45.1 °F 44.4 °F 30.4 in WSW 5.8 mph 8.9 mph 98 % 0 in
08:39 45.1 °F 44.8 °F 30.4 in WSW 5.8 mph 8.9 mph 98 % 0 in
08:44 45.1 °F 44.8 °F 30.4 in SW 4.3 mph 6.9 mph 98 % 0 in
08:49 45.3 °F 45 °F 30.4 in West 5.8 mph 6.5 mph 98 % 0 in
08:54 45.3 °F 45 °F 30.4 in West 7.4 mph 7.8 mph 98 % 0 in
12:17 32 °F 51.6 °F 0 in WSW 9.6 mph 12.3 mph 0 % 0 in
12:22 53.2 °F 51.8 °F 30.4 in WSW 12.5 mph 12.8 mph 95 % 0 in
12:27 53.2 °F 52 °F 30.5 in WSW 8.5 mph 12.8 mph 95 % 0 in
12:32 53.1 °F 52 °F 30.5 in WSW 9.8 mph 12.5 mph 96 % 0 in
12:37 53.1 °F 51.6 °F 30.5 in SSW 7.6 mph 12.5 mph 95 % 0 in
12:42 52.5 °F 51.3 °F 30.5 in WSW 10.3 mph 13.2 mph 95 % 0 in
12:47 52.5 °F 51.4 °F 30.5 in SW 7.6 mph 15.4 mph 96 % 0 in
12:52 52.9 °F 51.6 °F 30.5 in SW 7.6 mph 15.4 mph 96 % 0 in
12:57 53.4 °F 52.2 °F 30.5 in SW 12.3 mph 12.3 mph 95 % 0 in
13:02 53.4 °F 52.2 °F 30.5 in SW 8.7 mph 12.3 mph 95 % 0 in
13:07 53.4 °F 52.2 °F 30.4 in SW 7.8 mph 10.7 mph 95 % 0 in
13:12 53.4 °F 52.2 °F 30.4 in West 12.8 mph 14.3 mph 95 % 0 in
13:17 53.8 °F 52 °F 30.4 in WSW 11.2 mph 15.4 mph 94 % 0 in
13:22 54 °F 52 °F 30.4 in West 17 mph 17 mph 93 % 0 in
13:27 54 °F 51.4 °F 30.4 in WSW 13.9 mph 17 mph 91 % 0 in
13:32 54 °F 51.3 °F 30.4 in WSW 7.8 mph 16.3 mph 90 % 0 in
13:37 54.3 °F 51.4 °F 30.4 in SSW 10.3 mph 15.4 mph 90 % 0 in
13:42 54.9 °F 52 °F 30.4 in WSW 9.4 mph 12.3 mph 90 % 0 in
13:47 55 °F 52.2 °F 30.4 in WSW 9.8 mph 13 mph 90 % 0 in
13:52 55.6 °F 52.3 °F 30.4 in SW 9.6 mph 14.8 mph 89 % 0 in
13:57 55.8 °F 52.3 °F 30.4 in WSW 8.1 mph 14.8 mph 88 % 0 in
14:02 56.3 °F 52.5 °F 30.4 in WSW 14.3 mph 14.3 mph 87 % 0 in
14:07 56.1 °F 51.6 °F 30.4 in WSW 14.1 mph 14.3 mph 85 % 0 in
14:12 56.1 °F 51.6 °F 30.4 in SW 12.5 mph 14.1 mph 85 % 0 in
14:17 55.8 °F 50.7 °F 30.4 in West 9.8 mph 14.1 mph 83 % 0 in
14:22 55.8 °F 51.1 °F 30.4 in WSW 10.1 mph 12.8 mph 84 % 0 in
14:27 55.8 °F 51.1 °F 30.4 in WSW 10.7 mph 13.2 mph 84 % 0 in
14:32 55.6 °F 50.5 °F 30.4 in WSW 12.8 mph 14.5 mph 83 % 0 in
14:37 55.6 °F 50.7 °F 30.4 in WSW 12.3 mph 14.5 mph 84 % 0 in
14:42 55.6 °F 50.7 °F 30.4 in WSW 10.5 mph 12.8 mph 84 % 0 in
14:47 55.2 °F 50.2 °F 30.4 in WSW 7.8 mph 13.2 mph 83 % 0 in
14:53 55.2 °F 50.5 °F 30.4 in WSW 8.7 mph 13.2 mph 84 % 0 in
14:58 55.2 °F 50.5 °F 30.4 in SW 6.3 mph 11.2 mph 84 % 0 in
15:03 55.6 °F 50.9 °F 30.4 in SSW 7.6 mph 11.2 mph 84 % 0 in
15:08 55.8 °F 51.1 °F 30.4 in WSW 5.8 mph 10.5 mph 84 % 0 in
15:13 56.1 °F 51.4 °F 30.4 in SW 10.1 mph 10.5 mph 84 % 0 in
15:18 56.1 °F 50.7 °F 30.4 in SW 7.8 mph 11 mph 82 % 0 in
15:23 56.1 °F 50.7 °F 30.4 in SW 11.4 mph 14.1 mph 82 % 0 in
15:28 56.1 °F 50.7 °F 30.4 in SW 7.6 mph 14.1 mph 82 % 0 in
15:33 56.1 °F 50.4 °F 30.4 in West 9.4 mph 14.8 mph 81 % 0 in
15:38 55.9 °F 50.2 °F 30.4 in West 10.1 mph 14.8 mph 81 % 0 in
15:43 55.8 °F 50.4 °F 30.4 in WSW 11 mph 13.9 mph 82 % 0 in
15:48 55.6 °F 50.2 °F 30.4 in WSW 9.6 mph 13.9 mph 82 % 0 in
15:53 55.2 °F 49.8 °F 30.4 in WSW 11.4 mph 13 mph 82 % 0 in
15:58 55 °F 49.6 °F 30.4 in WSW 12.5 mph 13.4 mph 82 % 0 in
16:03 55 °F 49.6 °F 30.4 in West 8.5 mph 13.4 mph 82 % 0 in
16:08 54.3 °F 48.9 °F 30.4 in WSW 12.3 mph 15.4 mph 82 % 0 in
16:09 54.1 °F 48.7 °F 30.4 in WSW 12.5 mph 15.4 mph 82 % 0 in
16:14 54 °F 48.9 °F 30.4 in WSW 12.5 mph 15.4 mph 83 % 0 in
16:19 53.8 °F 48.7 °F 30.4 in West 12.5 mph 14.1 mph 83 % 0 in
16:24 53.4 °F 48.7 °F 30.4 in WSW 10.7 mph 14.1 mph 84 % 0 in
16:29 53.2 °F 48.9 °F 30.4 in WSW 8.5 mph 14.8 mph 85 % 0 in
16:34 53.1 °F 48.9 °F 30.4 in WSW 10.5 mph 14.8 mph 86 % 0 in
16:39 53.1 °F 48.9 °F 30.4 in WSW 11 mph 13 mph 86 % 0 in
16:44 52.9 °F 48.7 °F 30.4 in WSW 12.8 mph 13.2 mph 86 % 0 in
16:49 52.5 °F 48.9 °F 30.4 in WSW 13.2 mph 14.5 mph 87 % 0 in
16:54 52.3 °F 48.6 °F 30.4 in WSW 9.8 mph 14.5 mph 87 % 0 in
16:59 52.3 °F 48.6 °F 30.4 in West 9.2 mph 13.2 mph 87 % 0 in
17:04 52.2 °F 48.7 °F 30.4 in WSW 7.8 mph 12.8 mph 88 % 0 in
17:09 52.2 °F 48.7 °F 30.4 in West 7.8 mph 12.5 mph 88 % 0 in
17:14 52 °F 48.7 °F 30.4 in West 9.8 mph 13 mph 89 % 0 in
17:19 52 °F 48.7 °F 30.4 in West 15.4 mph 15.4 mph 89 % 0 in
17:24 52 °F 49.1 °F 30.4 in WSW 8.1 mph 15.4 mph 90 % 0 in
17:29 52 °F 49.1 °F 30.4 in West 11.4 mph 15.4 mph 90 % 0 in
17:34 51.8 °F 48.9 °F 30.4 in WNW 7.6 mph 13.2 mph 90 % 0 in
17:39 51.8 °F 48.9 °F 30.4 in West 10.7 mph 13.2 mph 90 % 0 in
17:44 51.8 °F 48.9 °F 30.4 in West 5.6 mph 12.8 mph 90 % 0 in
17:49 51.6 °F 48.9 °F 30.4 in West 10.5 mph 12.8 mph 91 % 0 in
17:54 51.6 °F 48.9 °F 30.4 in West 8.1 mph 12.1 mph 91 % 0 in
17:59 51.6 °F 48.9 °F 30.4 in West 8.5 mph 12.1 mph 91 % 0 in
18:04 51.6 °F 48.9 °F 30.4 in West 10.5 mph 14.5 mph 91 % 0 in
18:05 51.4 °F 48.9 °F 30.4 in West 10.1 mph 14.5 mph 91 % 0 in
18:10 51.4 °F 49.3 °F 30.5 in West 8.1 mph 14.5 mph 92 % 0 in
18:16 51.4 °F 49.3 °F 30.5 in WSW 5.4 mph 12.1 mph 92 % 0 in
18:21 51.4 °F 49.3 °F 30.5 in WSW 7.2 mph 12.1 mph 92 % 0 in
18:26 51.3 °F 48.9 °F 30.4 in WSW 7.6 mph 10.1 mph 92 % 0 in
18:31 51.3 °F 48.9 °F 30.4 in WSW 6.3 mph 10.1 mph 92 % 0 in
18:36 51.3 °F 48.9 °F 30.4 in WSW 7.6 mph 10.1 mph 92 % 0 in
18:41 51.3 °F 48.9 °F 30.4 in West 8.7 mph 10.7 mph 92 % 0 in
18:46 51.1 °F 49.1 °F 30.4 in West 6.5 mph 10.7 mph 93 % 0 in
18:51 51.1 °F 49.1 °F 30.4 in West 7.6 mph 10.3 mph 93 % 0 in
18:56 51.1 °F 49.1 °F 30.5 in West 6.5 mph 10.3 mph 93 % 0 in
19:01 50.9 °F 48.9 °F 30.5 in West 7.6 mph 8.7 mph 93 % 0 in
19:06 50.9 °F 48.9 °F 30.5 in WSW 5.4 mph 8.7 mph 93 % 0 in
19:11 50.9 °F 48.9 °F 30.5 in WSW 2.7 mph 7.8 mph 93 % 0 in
19:16 50.9 °F 48.9 °F 30.5 in WSW 2.9 mph 5.8 mph 93 % 0 in
19:21 50.7 °F 48.7 °F 30.5 in WSW 2.9 mph 5.4 mph 93 % 0 in
19:26 50.7 °F 48.7 °F 30.5 in WSW 4.9 mph 6.5 mph 93 % 0 in
19:31 50.5 °F 48.6 °F 30.5 in SW 4.5 mph 6.5 mph 93 % 0 in
19:36 50.5 °F 48.6 °F 30.5 in West 5.6 mph 6.5 mph 93 % 0 in
19:41 50.5 °F 48.6 °F 30.5 in WSW 3.4 mph 6.7 mph 93 % 0 in
19:46 50.5 °F 48.6 °F 30.5 in WSW 5.8 mph 7.6 mph 93 % 0 in
19:51 50.5 °F 48.6 °F 30.5 in WSW 4.3 mph 7.6 mph 93 % 0 in
19:56 50.5 °F 48.6 °F 30.5 in West 5.4 mph 6.5 mph 93 % 0 in
20:01 50.4 °F 48.4 °F 30.5 in WSW 4.7 mph 6 mph 93 % 0 in
20:06 50.4 °F 48.4 °F 30.5 in West 4.3 mph 6.5 mph 93 % 0 in
20:11 50.4 °F 48.4 °F 30.5 in Calm   6.5 mph 93 % 0 in
20:16 50.4 °F 48.4 °F 30.5 in WSW 4.3 mph 4.3 mph 93 % 0 in
20:21 50.4 °F 48.4 °F 30.5 in Calm   4.3 mph 93 % 0 in
20:26 50.2 °F 48.6 °F 30.5 in WSW 6 mph 6 mph 94 % 0 in
20:31 50.4 °F 48.7 °F 30.5 in Calm   6 mph 94 % 0 in
20:36 50.2 °F 48.6 °F 30.5 in WSW 4.3 mph 5.8 mph 94 % 0 in
20:41 50.2 °F 48.6 °F 30.5 in West 4.9 mph 5.8 mph 94 % 0 in
20:46 50.2 °F 48.6 °F 30.5 in Calm   5.8 mph 94 % 0 in
20:51 50.2 °F 48.6 °F 30.5 in West 3.4 mph 4.9 mph 94 % 0 in
20:56 50.2 °F 48.6 °F 30.5 in WSW 4.9 mph 4.9 mph 94 % 0 in
21:01 50 °F 48.4 °F 30.5 in Calm   4.9 mph 94 % 0 in
21:06 50 °F 48.4 °F 30.5 in WSW 4 mph 5.6 mph 94 % 0 in
21:11 50 °F 48.4 °F 30.5 in WSW 3.4 mph 5.6 mph 94 % 0 in
21:16 50 °F 48.4 °F 30.5 in WSW 3.4 mph 5.4 mph 94 % 0 in
21:21 50 °F 48.4 °F 30.5 in WSW 5.4 mph 6.3 mph 94 % 0 in
21:26 50 °F 48.4 °F 30.5 in WSW 7.2 mph 7.2 mph 94 % 0 in
21:31 50 °F 48.6 °F 30.5 in WSW 5.6 mph 7.8 mph 95 % 0 in
21:36 50 °F 48.6 °F 30.5 in West 6 mph 7.8 mph 95 % 0 in
21:41 50 °F 48.6 °F 30.5 in WSW 4.9 mph 7.2 mph 95 % 0 in
21:46 50 °F 48.6 °F 30.5 in WSW 6 mph 7.4 mph 95 % 0 in
21:51 50 °F 48.6 °F 30.5 in WSW 5.6 mph 8.9 mph 95 % 0 in
21:57 50.2 °F 48.7 °F 30.5 in WSW 8.7 mph 8.9 mph 95 % 0 in
22:02 50.2 °F 48.7 °F 30.5 in West 6.3 mph 8.7 mph 95 % 0 in
22:07 50.2 °F 48.7 °F 30.5 in West 6.3 mph 9.6 mph 95 % 0 in
22:12 50.2 °F 48.7 °F 30.5 in WSW 6.5 mph 9.6 mph 95 % 0 in
22:17 50.2 °F 48.7 °F 30.5 in WSW 7.8 mph 9.6 mph 95 % 0 in
22:22 50.2 °F 48.7 °F 30.5 in WSW 5.4 mph 8.9 mph 95 % 0 in
22:27 50.2 °F 49.1 °F 30.5 in West 8.7 mph 8.9 mph 96 % 0 in
22:32 50.2 °F 49.1 °F 30.5 in WSW 6.5 mph 8.7 mph 96 % 0 in
22:37 50.2 °F 49.1 °F 30.5 in West 5.6 mph 8.7 mph 96 % 0 in
22:42 50.2 °F 49.1 °F 30.5 in WSW 6 mph 8.7 mph 96 % 0 in
22:47 50.2 °F 49.1 °F 30.5 in West 5.8 mph 7.6 mph 96 % 0 in
22:52 50.2 °F 49.1 °F 30.5 in West 7.6 mph 7.6 mph 96 % 0 in
22:57 50.2 °F 49.1 °F 30.5 in West 7.4 mph 8.5 mph 96 % 0 in
23:02 50 °F 48.9 °F 30.5 in WSW 5.6 mph 8.7 mph 96 % 0 in
23:07 50 °F 48.9 °F 30.5 in WSW 4.9 mph 8.7 mph 96 % 0 in
23:12 50 °F 48.9 °F 30.5 in West 4.9 mph 6.5 mph 96 % 0 in
23:17 50 °F 48.9 °F 30.5 in WSW 6.3 mph 8.1 mph 96 % 0 in
23:22 50.2 °F 49.1 °F 30.5 in WSW 7.2 mph 8.1 mph 96 % 0 in
23:27 50.2 °F 49.1 °F 30.5 in WSW 5.4 mph 7.8 mph 96 % 0 in
23:32 50.2 °F 49.1 °F 30.5 in WSW 5.8 mph 7.8 mph 96 % 0 in
23:37 50.2 °F 49.1 °F 30.5 in West 5.4 mph 7.8 mph 96 % 0 in
23:42 50.2 °F 49.1 °F 30.5 in WSW 7.6 mph 9.2 mph 96 % 0 in
23:47 50.2 °F 49.1 °F 30.5 in WSW 5.6 mph 9.2 mph 96 % 0 in
23:52 50 °F 48.9 °F 30.5 in WSW 4.3 mph 7.6 mph 96 % 0 in
23:57 50 °F 48.9 °F 30.5 in SW 3.6 mph 7.4 mph 96 % 0 in
Le Gheer Warneton
Courtoisie de Weather Underground - 2.25 mb

Mise a jour : 17-12-17 09:08:12
Généré par Cumulus 1.9.4 (1099)